Hovedside
METAR-TAF:

METAR-TAF

Lufthavner :

Victoria Harbour, Britisk Columbia, Canada

breddegrad: 48-25N, lengdegrad: 123-20W, høyde over havet: 5 m

Gjeldene værobservasjon

Denne rapporten ble laget for 51 minutter siden, klokken 22:00 UTC
Vind 6 kt fra Sørvest, skiftende mellom Sør og Vest-sørvest
Temperatur 14°C
Luftfuktighet 88%
Trykk 1024 hPa
Sikt: 12.9 km
Skyfri himmel

METAR: CYWH 172200Z 23006KT 170V240 8SM SKC 14/12 A3023 RMK FU SLP238

Tid: 15:51 (22:51 UTC)

Varsel

Denne rapporten ble laget for 5 timer og 13 minutter siden, klokken 17:38 UTC
Varsel gyldig fra 17. klokken 18 UTC til 18. klokken 04 UTC
Vind 3 kt fra skiftende retning
Sikt: 10 km
Skyfri himmel
Blir
fra 17. klokken 18 UTC til 17. klokken 20 UTC
Vind 8 kt fra Sørvest

TAF: CYWH 171738Z 1718/1804 VRB03KT P6SM SKC BECMG 1718/1720 23008KT RMK NXT FCST BY 180000Z

Værobservasjoner og værvarsel for over 4000 flyplasser (METAR- og TAF-rapporter).

Tilgjengelige stasjoner er representert av de røde og gule prikkene på kartet.

Hold musepekeren over prikken for å se navnet på stasjonen.

Klikk så for å se værobservasjoner og -varsler.

For å forandre kartet kan du klikke på den grønne knappen med svart kryss for å zoome inn, på den grønne knappen med strek for å zoome ut, eller på de grønne pilene for å se tilstøtende kart.


METAR-TAF: